Time;durP1;ratioP1;P1;durP2;ratioP2;P2;SDS_P1;SDS_P2;PMS_P1;PMS_P2;Temp;Humidity;BMP_temperature;BMP_pressure;BME280_temperature;BME280_humidity;BME280_pressure;Samples;Min_cycle;Max_cycle;Signal;HPM_P1;HPM_P2
2023/06/11 00:00:28;;;;;;;7.83;7.13;;;22.20;54.60;;;;;;4936394;29;20445;-76
2023/06/11 00:02:54;;;;;;;8.40;7.73;;;22.30;54.80;;;;;;4948662;29;20166;-74
2023/06/11 00:05:21;;;;;;;12.83;7.90;;;22.20;54.90;;;;;;4964862;29;20624;-76
2023/06/11 00:07:48;;;;;;;8.43;7.70;;;22.20;55.00;;;;;;4934557;29;20428;-74
2023/06/11 00:10:15;;;;;;;8.87;7.97;;;22.30;54.90;;;;;;4911162;29;20442;-75
2023/06/11 00:12:41;;;;;;;9.10;7.33;;;22.30;55.00;;;;;;4897836;29;20491;-77
2023/06/11 00:15:08;;;;;;;8.37;7.67;;;22.20;55.00;;;;;;4873704;29;20479;-76
2023/06/11 00:17:33;;;;;;;8.50;7.60;;;22.10;55.20;;;;;;4891721;29;20428;-75
2023/06/11 00:20:09;;;;;;;9.13;7.50;;;22.10;55.30;;;;;;4875022;29;20472;-76
2023/06/11 00:22:35;;;;;;;8.87;8.07;;;22.00;55.40;;;;;;4892126;29;20178;-75
2023/06/11 00:25:01;;;;;;;7.80;7.10;;;22.00;55.60;;;;;;4873307;29;20500;-74
2023/06/11 00:27:26;;;;;;;8.27;7.57;;;21.90;55.70;;;;;;4866982;29;20468;-75
2023/06/11 00:29:53;;;;;;;8.17;7.37;;;21.80;55.80;;;;;;4907528;29;20175;-78
2023/06/11 00:32:19;;;;;;;10.30;7.73;;;21.80;56.00;;;;;;4862475;29;20274;-75
2023/06/11 00:34:45;;;;;;;8.17;7.37;;;21.70;56.00;;;;;;4879847;29;20440;-75
2023/06/11 00:37:11;;;;;;;10.40;7.20;;;21.70;56.20;;;;;;4877536;29;20228;-73
2023/06/11 00:39:37;;;;;;;8.87;8.03;;;21.70;56.30;;;;;;4860774;29;20219;-75
2023/06/11 00:42:03;;;;;;;10.10;7.90;;;21.70;56.50;;;;;;4919836;29;20424;-74
2023/06/11 00:44:29;;;;;;;8.53;7.73;;;21.70;56.50;;;;;;4932062;29;20220;-75
2023/06/11 00:46:57;;;;;;;10.50;8.10;;;21.70;56.70;;;;;;4948927;29;20178;-74
2023/06/11 00:49:23;;;;;;;8.00;7.30;;;21.60;57.40;;;;;;4937173;29;20441;-74
2023/06/11 00:51:49;;;;;;;8.90;8.00;;;21.50;57.10;;;;;;4930696;29;20502;-74
2023/06/11 00:54:18;;;;;;;7.80;7.10;;;21.40;57.40;;;;;;4935536;29;20437;-76
2023/06/11 00:56:44;;;;;;;10.00;7.83;;;21.40;57.60;;;;;;4933950;29;20418;-75
2023/06/11 00:59:11;;;;;;;8.30;7.47;;;21.30;57.70;;;;;;4931979;29;20460;-77
2023/06/11 01:01:41;;;;;;;7.97;7.23;;;21.30;58.00;;;;;;4932903;29;20456;-76
2023/06/11 01:04:17;;;;;;;9.43;8.43;;;21.30;58.30;;;;;;4949800;29;21135;-77
2023/06/11 01:06:46;;;;;;;8.20;7.50;;;21.20;58.50;;;;;;4933319;29;20436;-75
2023/06/11 01:09:19;;;;;;;8.17;7.47;;;21.10;58.60;;;;;;4934775;29;20443;-75
2023/06/11 01:11:48;;;;;;;8.67;7.87;;;21.10;58.90;;;;;;4939908;29;20496;-77
2023/06/11 01:14:16;;;;;;;8.20;7.40;;;21.10;59.80;;;;;;4963895;29;20465;-75
2023/06/11 01:16:52;;;;;;;8.10;7.43;;;21.00;59.40;;;;;;4946368;29;20444;-75
2023/06/11 01:19:33;;;;;;;7.63;6.93;;;21.00;59.60;;;;;;4947896;29;20562;-76
2023/06/11 01:22:49;;;;;;;7.20;6.60;;;21.00;60.00;;;;;;4950441;29;20413;-77
2023/06/11 01:25:37;;;;;;;8.60;7.70;;;20.90;60.50;;;;;;4877683;29;20440;-77
2023/06/11 01:28:08;;;;;;;8.83;7.60;;;20.80;61.00;;;;;;4938546;29;20923;-74
2023/06/11 01:30:40;;;;;;;7.70;7.00;;;20.80;61.50;;;;;;4942320;29;20528;-75
2023/06/11 01:33:08;;;;;;;8.93;8.13;;;20.80;61.80;;;;;;4928531;29;20428;-74
2023/06/11 01:35:40;;;;;;;8.00;7.23;;;20.80;62.50;;;;;;4948051;29;20979;-74
2023/06/11 01:38:08;;;;;;;8.63;6.90;;;20.80;62.60;;;;;;4961418;29;20401;-73
2023/06/11 01:40:55;;;;;;;6.77;6.23;;;20.80;63.20;;;;;;4929760;29;20474;-73
2023/06/11 01:43:23;;;;;;;7.80;7.10;;;20.70;63.90;;;;;;4927296;29;20425;-75
2023/06/11 01:45:49;;;;;;;8.07;7.27;;;20.70;64.50;;;;;;4931482;29;20404;-74
2023/06/11 01:48:16;;;;;;;8.50;7.73;;;20.70;64.90;;;;;;4944909;29;20510;-75
2023/06/11 01:50:42;;;;;;;7.53;6.93;;;20.60;65.30;;;;;;4935605;29;20202;-75
2023/06/11 01:53:07;;;;;;;7.47;6.53;;;20.60;65.70;;;;;;4947114;29;20485;-77
2023/06/11 01:55:56;;;;;;;9.23;8.33;;;20.50;66.10;;;;;;4947902;29;20185;-75
2023/06/11 01:58:22;;;;;;;7.50;6.90;;;20.50;66.80;;;;;;4948065;29;20410;-75
2023/06/11 02:00:49;;;;;;;7.63;6.93;;;20.50;67.30;;;;;;4929601;29;20425;-73
2023/06/11 02:03:15;;;;;;;8.27;7.57;;;20.50;67.70;;;;;;4930022;29;20485;-75
2023/06/11 02:05:43;;;;;;;7.10;6.47;;;20.40;68.30;;;;;;4929899;29;20183;-77
2023/06/11 02:08:09;;;;;;;8.43;6.40;;;20.50;68.60;;;;;;4929854;29;20432;-75
2023/06/11 02:10:35;;;;;;;7.80;7.00;;;20.50;68.90;;;;;;4929656;29;20426;-74
2023/06/11 02:13:01;;;;;;;9.90;8.10;;;20.40;69.20;;;;;;4947519;29;20408;-73
2023/06/11 02:15:26;;;;;;;12.40;7.90;;;20.40;70.20;;;;;;4929938;29;20256;-75
2023/06/11 02:17:52;;;;;;;7.80;7.10;;;20.50;70.40;;;;;;4933544;29;20294;-75
2023/06/11 02:20:18;;;;;;;8.37;7.67;;;20.50;70.30;;;;;;4940176;29;20208;-73
2023/06/11 02:22:43;;;;;;;7.80;7.00;;;20.50;70.70;;;;;;4965431;29;20181;-75
2023/06/11 02:25:09;;;;;;;7.23;6.50;;;20.40;71.30;;;;;;4946356;29;20509;-75
2023/06/11 02:27:35;;;;;;;7.50;6.70;;;20.40;71.30;;;;;;4931931;29;20192;-74
2023/06/11 02:30:02;;;;;;;7.63;6.93;;;20.30;72.10;;;;;;4948836;29;20258;-74
2023/06/11 02:32:28;;;;;;;8.13;7.33;;;20.30;72.70;;;;;;4946820;29;20413;-74
2023/06/11 02:34:55;;;;;;;7.80;7.10;;;20.30;73.20;;;;;;4925870;29;20497;-74
2023/06/11 02:37:20;;;;;;;8.37;7.67;;;20.20;73.80;;;;;;4929094;29;20417;-74
2023/06/11 02:39:46;;;;;;;7.93;7.27;;;20.20;74.70;;;;;;4927362;29;20259;-74
2023/06/11 02:42:11;;;;;;;7.90;7.20;;;20.20;75.20;;;;;;4945888;29;20186;-74
2023/06/11 02:44:37;;;;;;;7.83;7.10;;;20.20;75.50;;;;;;4929645;29;20584;-74
2023/06/11 02:47:03;;;;;;;8.30;7.67;;;20.10;75.60;;;;;;4930028;29;20177;-76
2023/06/11 02:49:28;;;;;;;8.60;7.90;;;20.10;76.50;;;;;;4950127;29;20260;-75
2023/06/11 02:51:54;;;;;;;8.30;7.50;;;20.10;77.20;;;;;;4951317;29;20581;-74
2023/06/11 02:54:19;;;;;;;9.77;7.20;;;20.10;77.70;;;;;;4928464;29;20231;-76
2023/06/11 02:56:45;;;;;;;7.40;6.77;;;20.10;78.00;;;;;;4961593;29;20190;-75
2023/06/11 02:59:11;;;;;;;8.90;8.10;;;20.00;78.00;;;;;;4931306;29;20194;-75
2023/06/11 03:01:38;;;;;;;13.73;8.10;;;20.00;78.40;;;;;;4928644;29;20257;-73
2023/06/11 03:04:05;;;;;;;8.70;7.80;;;20.00;78.60;;;;;;4943898;29;20190;-74
2023/06/11 03:06:33;;;;;;;7.63;7.03;;;20.10;78.90;;;;;;4927291;29;20438;-74
2023/06/11 03:08:59;;;;;;;8.13;7.43;;;20.00;78.90;;;;;;4925198;29;20439;-73
2023/06/11 03:11:25;;;;;;;9.50;8.10;;;20.00;80.20;;;;;;4925030;29;20882;-73
2023/06/11 03:13:52;;;;;;;7.87;7.07;;;20.00;80.30;;;;;;4893241;29;20219;-73
2023/06/11 03:16:17;;;;;;;8.17;7.37;;;20.00;80.70;;;;;;4926290;29;20506;-74
2023/06/11 03:18:43;;;;;;;7.30;6.67;;;20.00;81.40;;;;;;4926011;29;20859;-74
2023/06/11 03:21:10;;;;;;;7.30;6.70;;;19.90;81.50;;;;;;4916436;29;20474;-74
2023/06/11 03:23:36;;;;;;;8.03;7.23;;;20.00;82.20;;;;;;4944364;29;20497;-73
2023/06/11 03:26:01;;;;;;;7.33;6.73;;;19.90;82.30;;;;;;4927023;29;20497;-73
2023/06/11 03:28:33;;;;;;;7.33;6.63;;;20.00;83.10;;;;;;4939787;29;20191;-73
2023/06/11 03:31:00;;;;;;;8.13;7.50;;;19.90;83.10;;;;;;4943255;29;20418;-73
2023/06/11 03:33:25;;;;;;;11.10;8.10;;;19.90;83.70;;;;;;4942022;29;20891;-73
2023/06/11 03:35:51;;;;;;;8.47;7.70;;;19.90;83.60;;;;;;4927721;29;20456;-73
2023/06/11 03:38:22;;;;;;;12.13;7.70;;;19.90;84.10;;;;;;4924418;29;20424;-74
2023/06/11 03:40:47;;;;;;;7.27;6.57;;;20.00;83.70;;;;;;4907051;29;20440;-75
2023/06/11 03:43:13;;;;;;;8.27;7.50;;;19.90;84.30;;;;;;4908141;29;20255;-74
2023/06/11 03:45:40;;;;;;;9.13;7.53;;;19.90;85.00;;;;;;4917383;29;20193;-73
2023/06/11 03:48:07;;;;;;;10.80;7.07;;;20.00;85.20;;;;;;4927395;29;20414;-74
2023/06/11 03:50:33;;;;;;;8.80;7.30;;;19.90;85.30;;;;;;4908020;29;20244;-73
2023/06/11 03:53:00;;;;;;;8.17;7.40;;;20.00;85.40;;;;;;4916948;29;20478;-73
2023/06/11 03:55:26;;;;;;;8.77;7.37;;;20.00;85.80;;;;;;4942918;29;20525;-74
2023/06/11 03:57:51;;;;;;;6.93;6.33;;;20.00;85.50;;;;;;4926228;29;20404;-76
2023/06/11 04:00:17;;;;;;;7.60;6.80;;;20.00;85.50;;;;;;4907776;29;20473;-75
2023/06/11 04:02:43;;;;;;;7.13;6.43;;;20.00;85.20;;;;;;4902786;29;20545;-72
2023/06/11 04:05:14;;;;;;;6.73;6.13;;;20.00;84.80;;;;;;4919051;29;20439;-73
2023/06/11 04:07:42;;;;;;;9.60;8.37;;;20.10;85.00;;;;;;4905858;29;20466;-73
2023/06/11 04:10:09;;;;;;;9.60;8.60;;;20.10;84.80;;;;;;4934751;29;20473;-73
2023/06/11 04:12:35;;;;;;;7.70;7.00;;;20.10;84.80;;;;;;4934388;29;20461;-72
2023/06/11 04:15:01;;;;;;;7.60;6.90;;;20.20;84.50;;;;;;4943134;29;20544;-71
2023/06/11 04:17:26;;;;;;;7.93;7.33;;;20.20;83.60;;;;;;4929318;29;20226;-72
2023/06/11 04:19:52;;;;;;;7.90;7.30;;;20.30;83.50;;;;;;4925121;29;20547;-73
2023/06/11 04:22:17;;;;;;;8.60;7.67;;;20.30;83.20;;;;;;4957325;29;20174;-74
2023/06/11 04:24:43;;;;;;;8.43;6.87;;;20.30;82.70;;;;;;4939902;29;20190;-74
2023/06/11 04:27:11;;;;;;;8.33;7.53;;;20.40;82.30;;;;;;4939227;29;20421;-74
2023/06/11 04:29:37;;;;;;;8.40;7.60;;;20.40;82.10;;;;;;4936687;29;20443;-73
2023/06/11 04:32:04;;;;;;;7.50;6.80;;;20.40;81.80;;;;;;4937946;29;20416;-74
2023/06/11 04:34:31;;;;;;;8.00;7.30;;;20.50;81.50;;;;;;4921885;29;20486;-73
2023/06/11 04:36:59;;;;;;;10.73;8.57;;;20.50;80.70;;;;;;4920892;29;20411;-73
2023/06/11 04:39:26;;;;;;;7.23;6.57;;;20.60;80.70;;;;;;4924562;29;20438;-72
2023/06/11 04:41:52;;;;;;;8.43;7.63;;;20.60;80.40;;;;;;4939688;29;20260;-73
2023/06/11 04:44:20;;;;;;;8.00;7.30;;;20.70;79.90;;;;;;4933223;29;20440;-73
2023/06/11 04:46:47;;;;;;;8.00;7.30;;;21.00;78.10;;;;;;4920596;29;20422;-72
2023/06/11 04:49:20;;;;;;;7.33;6.70;;;21.50;74.10;;;;;;4935298;29;20511;-72
2023/06/11 04:51:48;;;;;;;8.23;7.53;;;22.10;69.20;;;;;;4935022;29;20506;-72
2023/06/11 04:54:17;;;;;;;8.40;7.70;;;22.60;65.20;;;;;;4939564;29;20479;-72
2023/06/11 04:56:44;;;;;;;6.77;6.17;;;23.00;62.70;;;;;;4931219;29;20516;-72
2023/06/11 04:59:11;;;;;;;9.27;8.37;;;23.40;60.80;;;;;;4920055;29;20440;-72
2023/06/11 05:01:46;;;;;;;8.83;8.00;;;23.70;58.50;;;;;;4937306;29;20424;-72
2023/06/11 05:04:14;;;;;;;7.60;7.00;;;23.90;57.60;;;;;;4922509;29;20422;-73
2023/06/11 05:06:44;;;;;;;8.70;7.93;;;24.30;56.90;;;;;;4924332;29;20424;-74
2023/06/11 05:09:12;;;;;;;8.50;7.70;;;24.40;55.90;;;;;;4956028;29;20732;-72
2023/06/11 05:11:42;;;;;;;8.47;7.67;;;24.60;55.20;;;;;;4925660;29;20454;-73
2023/06/11 05:14:09;;;;;;;8.03;6.77;;;24.70;54.60;;;;;;4917283;29;20462;-73
2023/06/11 05:16:35;;;;;;;8.13;7.30;;;24.90;54.50;;;;;;4927383;29;20453;-71
2023/06/11 05:19:02;;;;;;;10.77;7.00;;;25.20;54.10;;;;;;4927175;29;20517;-72
2023/06/11 05:21:28;;;;;;;7.50;6.80;;;25.40;53.40;;;;;;4903654;29;20450;-73
2023/06/11 05:23:54;;;;;;;6.93;6.43;;;25.50;53.10;;;;;;4923399;29;20418;-71
2023/06/11 05:26:31;;;;;;;6.97;6.27;;;25.80;52.60;;;;;;4919247;29;20186;-71
2023/06/11 05:28:57;;;;;;;6.60;6.00;;;26.00;52.20;;;;;;4921848;29;20523;-72
2023/06/11 05:31:23;;;;;;;7.40;6.73;;;26.20;51.40;;;;;;4939664;29;20786;-71
2023/06/11 05:33:50;;;;;;;6.90;6.23;;;26.30;50.90;;;;;;4922511;29;20464;-72
2023/06/11 05:36:16;;;;;;;6.53;5.93;;;26.50;50.70;;;;;;4924535;29;20426;-73
2023/06/11 05:38:44;;;;;;;6.90;6.20;;;26.70;50.50;;;;;;4923729;29;20574;-72
2023/06/11 05:41:10;;;;;;;6.73;6.17;;;26.90;49.90;;;;;;4923065;29;20413;-73
2023/06/11 05:43:36;;;;;;;6.33;5.80;;;27.00;49.50;;;;;;4925660;29;20438;-73
2023/06/11 05:46:02;;;;;;;7.23;6.60;;;27.30;48.70;;;;;;4921773;29;20723;-73
2023/06/11 05:48:29;;;;;;;9.10;6.60;;;27.30;48.20;;;;;;4918386;29;20190;-71
2023/06/11 05:50:55;;;;;;;8.20;6.73;;;27.30;48.00;;;;;;4924145;29;20441;-73
2023/06/11 05:53:21;;;;;;;7.07;6.43;;;27.20;48.10;;;;;;4921793;29;20521;-73
2023/06/11 05:55:47;;;;;;;6.83;6.23;;;27.30;48.20;;;;;;4904713;29;20403;-73
2023/06/11 05:58:13;;;;;;;12.93;7.37;;;27.40;48.20;;;;;;4922361;29;20422;-72
2023/06/11 06:00:42;;;;;;;9.73;7.77;;;27.60;47.70;;;;;;4904046;29;20456;-72
2023/06/11 06:03:09;;;;;;;8.00;7.27;;;27.80;47.10;;;;;;4910590;29;20224;-72
2023/06/11 06:05:35;;;;;;;7.23;6.50;;;27.90;46.70;;;;;;4923186;29;20838;-73
2023/06/11 06:08:00;;;;;;;8.40;7.00;;;28.10;46.50;;;;;;4925099;29;20426;-72
2023/06/11 06:10:26;;;;;;;7.57;6.80;;;28.10;46.30;;;;;;4903164;29;20265;-73
2023/06/11 06:12:52;;;;;;;7.20;6.70;;;27.90;46.50;;;;;;4958442;29;20584;-71
2023/06/11 06:15:18;;;;;;;8.10;7.27;;;27.80;47.00;;;;;;4931391;29;20218;-72
2023/06/11 06:17:44;;;;;;;8.17;7.33;;;27.70;47.30;;;;;;4951016;29;20408;-73
2023/06/11 06:20:14;;;;;;;6.80;6.23;;;27.80;47.60;;;;;;4931717;29;20212;-73
2023/06/11 06:22:40;;;;;;;6.60;6.10;;;28.10;47.40;;;;;;4942695;29;20405;-75
2023/06/11 06:25:06;;;;;;;7.40;6.80;;;28.30;46.50;;;;;;4957029;29;21284;-74
2023/06/11 06:27:34;;;;;;;6.47;5.87;;;28.40;46.30;;;;;;4931013;29;20438;-74
2023/06/11 06:30:01;;;;;;;7.43;6.83;;;28.50;46.10;;;;;;4938729;29;20455;-75
2023/06/11 06:32:28;;;;;;;7.73;6.90;;;28.60;46.20;;;;;;4936062;29;20424;-77
2023/06/11 06:34:55;;;;;;;6.93;6.33;;;28.30;45.90;;;;;;4926119;29;20487;-73
2023/06/11 06:37:22;;;;;;;9.53;7.80;;;28.30;46.10;;;;;;4937880;29;20484;-73
2023/06/11 06:39:48;;;;;;;7.53;6.87;;;28.40;45.70;;;;;;4928723;29;20445;-72
2023/06/11 06:42:14;;;;;;;7.40;6.80;;;28.30;46.00;;;;;;4924878;29;20468;-74
2023/06/11 06:44:46;;;;;;;9.20;7.80;;;28.40;46.20;;;;;;4942147;29;20173;-74
2023/06/11 06:47:14;;;;;;;7.30;6.67;;;28.50;45.60;;;;;;4941968;29;20429;-73
2023/06/11 06:49:40;;;;;;;6.83;6.27;;;28.50;45.40;;;;;;4927928;29;20445;-73
2023/06/11 06:52:07;;;;;;;6.80;6.30;;;28.30;45.80;;;;;;4928287;29;20872;-72
2023/06/11 06:54:33;;;;;;;7.03;6.53;;;28.10;46.30;;;;;;4959162;29;20272;-74
2023/06/11 06:57:00;;;;;;;8.07;7.37;;;28.00;46.60;;;;;;4942036;29;20433;-74
2023/06/11 06:59:25;;;;;;;7.00;6.50;;;27.90;46.70;;;;;;4926097;29;20456;-73
2023/06/11 07:01:52;;;;;;;7.00;6.40;;;27.80;46.80;;;;;;4937168;29;20418;-72
2023/06/11 07:04:18;;;;;;;6.97;6.40;;;27.90;46.70;;;;;;4921885;29;20422;-73
2023/06/11 07:06:43;;;;;;;8.60;7.80;;;27.90;46.90;;;;;;4941939;29;20959;-73
2023/06/11 07:09:09;;;;;;;7.50;6.83;;;27.80;47.00;;;;;;4932747;29;20216;-71
2023/06/11 07:11:36;;;;;;;7.43;6.30;;;27.90;46.80;;;;;;4921912;29;20328;-74
2023/06/11 07:14:02;;;;;;;7.27;6.60;;;28.10;46.50;;;;;;4922300;29;20550;-74
2023/06/11 07:16:28;;;;;;;7.80;7.00;;;28.00;46.20;;;;;;4931915;29;20426;-74
2023/06/11 07:18:58;;;;;;;7.43;6.73;;;28.00;46.20;;;;;;4917451;29;20440;-75
2023/06/11 07:21:24;;;;;;;7.77;7.07;;;27.80;46.60;;;;;;4921873;29;20749;-77
2023/06/11 07:23:50;;;;;;;7.53;6.80;;;27.60;46.60;;;;;;4903081;29;20194;-75
2023/06/11 07:26:15;;;;;;;7.50;6.90;;;27.50;46.90;;;;;;4910820;29;20986;-73
2023/06/11 07:28:42;;;;;;;7.20;6.50;;;27.40;47.40;;;;;;4936647;29;20574;-75
2023/06/11 07:31:08;;;;;;;6.30;5.70;;;27.40;47.60;;;;;;4927202;29;20457;-75
2023/06/11 07:33:35;;;;;;;6.83;6.23;;;27.60;47.10;;;;;;4892862;29;20260;-75
2023/06/11 07:36:01;;;;;;;8.57;7.80;;;27.50;47.40;;;;;;4922375;29;20761;-74
2023/06/11 07:38:27;;;;;;;7.83;7.10;;;27.30;47.70;;;;;;4913401;29;20470;-74
2023/06/11 07:40:52;;;;;;;8.13;7.30;;;27.10;48.50;;;;;;4925643;29;20217;-73
2023/06/11 07:43:21;;;;;;;11.47;7.20;;;26.80;48.60;;;;;;4925629;29;20186;-73
2023/06/11 07:45:47;;;;;;;8.00;7.23;;;26.40;49.10;;;;;;4928337;29;20429;-76
2023/06/11 07:48:13;;;;;;;7.77;6.97;;;26.10;49.90;;;;;;4919403;29;20288;-74
2023/06/11 07:50:38;;;;;;;8.93;8.23;;;26.00;50.70;;;;;;4920820;29;20233;-75
2023/06/11 07:53:04;;;;;;;7.17;6.57;;;26.00;50.60;;;;;;4921917;29;20205;-74
2023/06/11 07:55:32;;;;;;;6.73;6.13;;;25.90;50.90;;;;;;4938852;29;20217;-76
2023/06/11 07:57:58;;;;;;;8.60;7.30;;;25.90;51.00;;;;;;4921265;29;20702;-74
2023/06/11 08:00:24;;;;;;;7.07;6.47;;;25.90;51.10;;;;;;4934584;29;20636;-74
2023/06/11 08:02:51;;;;;;;7.50;6.80;;;26.00;51.20;;;;;;4940154;29;20198;-75
2023/06/11 08:05:19;;;;;;;7.43;6.73;;;26.00;51.20;;;;;;4928676;29;20423;-74
2023/06/11 08:07:47;;;;;;;7.90;7.20;;;26.00;50.80;;;;;;4924747;29;20439;-75
2023/06/11 08:10:13;;;;;;;7.40;6.80;;;25.90;50.80;;;;;;4935745;29;20840;-74
2023/06/11 08:12:39;;;;;;;7.10;6.60;;;25.80;51.30;;;;;;4943074;29;20496;-74
2023/06/11 08:15:05;;;;;;;6.60;5.90;;;25.80;51.00;;;;;;4943199;29;20453;-74
2023/06/11 08:17:31;;;;;;;7.37;6.70;;;25.80;51.40;;;;;;4943633;29;20173;-75
2023/06/11 08:19:57;;;;;;;6.23;5.77;;;25.90;51.10;;;;;;4941147;29;20449;-77
2023/06/11 08:22:23;;;;;;;7.53;6.73;;;25.90;51.30;;;;;;4944800;29;20189;-75
2023/06/11 08:24:48;;;;;;;6.70;6.10;;;26.00;51.10;;;;;;4926797;29;20433;-73
2023/06/11 08:27:14;;;;;;;6.67;6.07;;;26.10;51.10;;;;;;4944050;29;20169;-73
2023/06/11 08:29:41;;;;;;;7.77;7.17;;;26.20;51.10;;;;;;4944775;29;20589;-75
2023/06/11 08:32:07;;;;;;;6.93;6.43;;;26.20;51.00;;;;;;4912567;29;20201;-75
2023/06/11 08:34:33;;;;;;;7.03;6.53;;;26.20;51.30;;;;;;4926915;29;20462;-74
2023/06/11 08:37:00;;;;;;;6.70;6.20;;;26.30;51.00;;;;;;4934352;29;20186;-74
2023/06/11 08:39:26;;;;;;;7.73;7.03;;;26.40;50.50;;;;;;4922607;29;20202;-72
2023/06/11 08:41:52;;;;;;;7.53;6.87;;;26.40;50.60;;;;;;4940538;29;20414;-75
2023/06/11 08:44:17;;;;;;;7.37;5.90;;;26.40;50.70;;;;;;4934850;29;20199;-76
2023/06/11 08:46:44;;;;;;;8.00;7.37;;;26.50;50.50;;;;;;4894744;29;20419;-78
2023/06/11 08:49:21;;;;;;;7.07;6.47;;;26.50;50.30;;;;;;4898990;29;20222;-74
2023/06/11 08:51:47;;;;;;;6.03;5.43;;;26.50;50.50;;;;;;4909543;29;20800;-75
2023/06/11 08:54:13;;;;;;;7.10;6.50;;;26.60;50.50;;;;;;4914220;29;20466;-75
2023/06/11 08:56:39;;;;;;;6.80;5.97;;;26.70;50.10;;;;;;4928084;29;20421;-78
2023/06/11 08:59:06;;;;;;;7.03;6.43;;;26.80;49.90;;;;;;4915861;29;20460;-74
2023/06/11 09:01:32;;;;;;;9.07;6.23;;;26.80;49.60;;;;;;4953588;29;20414;-78
2023/06/11 09:03:58;;;;;;;6.43;5.87;;;26.90;49.50;;;;;;4948789;29;20855;-74
2023/06/11 09:06:24;;;;;;;6.30;5.77;;;27.00;48.50;;;;;;4952485;29;20586;-74
2023/06/11 09:09:05;;;;;;;10.60;9.53;;;27.10;47.80;;;;;;4932833;29;20472;-74
2023/06/11 09:11:36;;;;;;;6.00;5.40;;;27.10;48.10;;;;;;4935571;29;20303;-75
2023/06/11 09:14:03;;;;;;;5.83;5.33;;;27.20;47.10;;;;;;4931174;29;20461;-75
2023/06/11 09:16:44;;;;;;;7.00;6.30;;;27.20;47.30;;;;;;4955815;29;20417;-76
2023/06/11 09:19:16;;;;;;;5.87;5.37;;;27.40;47.30;;;;;;4956842;29;20439;-76
2023/06/11 09:21:53;;;;;;;6.13;5.63;;;27.40;46.90;;;;;;4950744;29;20467;-76
2023/06/11 09:24:19;;;;;;;5.67;5.17;;;27.40;46.70;;;;;;4935715;29;20449;-74
2023/06/11 09:27:06;;;;;;;5.53;5.13;;;27.40;46.50;;;;;;4947816;29;20491;-74
2023/06/11 09:29:34;;;;;;;6.07;5.57;;;27.40;46.20;;;;;;4949701;29;20468;-75
2023/06/11 09:32:08;;;;;;;6.90;5.50;;;27.50;46.30;;;;;;4968665;29;20412;-74
2023/06/11 09:34:34;;;;;;;6.20;5.67;;;27.60;46.00;;;;;;4946472;29;20468;-73
2023/06/11 09:37:00;;;;;;;5.63;5.20;;;27.60;46.10;;;;;;4946379;29;20420;-75
2023/06/11 09:39:27;;;;;;;6.70;5.60;;;27.80;45.90;;;;;;4945154;29;20448;-75
2023/06/11 09:41:54;;;;;;;6.70;6.10;;;27.80;45.40;;;;;;4953885;29;20476;-74
2023/06/11 09:44:20;;;;;;;6.83;5.97;;;27.80;45.00;;;;;;4931153;29;20433;-75
2023/06/11 09:46:48;;;;;;;7.00;5.73;;;27.80;44.90;;;;;;4948920;29;20428;-74
2023/06/11 09:49:15;;;;;;;6.30;5.73;;;27.80;44.20;;;;;;4955454;29;20445;-77
2023/06/11 09:51:41;;;;;;;9.43;5.30;;;27.80;44.30;;;;;;4946775;29;20857;-75
2023/06/11 09:54:08;;;;;;;5.73;5.23;;;27.80;44.20;;;;;;4946641;29;20480;-75
2023/06/11 09:56:37;;;;;;;6.90;5.97;;;27.80;44.30;;;;;;4965549;29;20440;-75
2023/06/11 09:59:04;;;;;;;5.70;5.20;;;28.00;44.40;;;;;;4937364;29;20465;-75
2023/06/11 10:01:31;;;;;;;6.33;5.73;;;28.00;43.90;;;;;;4952369;29;20530;-75
2023/06/11 10:03:59;;;;;;;5.87;5.37;;;28.00;43.30;;;;;;4953600;29;20394;-74
2023/06/11 10:06:32;;;;;;;6.53;5.90;;;28.00;43.20;;;;;;4949813;29;20422;-76
2023/06/11 10:09:00;;;;;;;5.83;5.40;;;28.00;42.50;;;;;;4947246;29;20453;-78
2023/06/11 10:11:29;;;;;;;6.13;5.53;;;28.10;42.30;;;;;;4941175;29;20465;-76
2023/06/11 10:14:01;;;;;;;6.60;6.00;;;28.20;42.00;;;;;;4966185;29;20765;-76
2023/06/11 10:16:28;;;;;;;5.90;5.10;;;28.30;42.20;;;;;;4961912;29;20477;-74
2023/06/11 10:19:08;;;;;;;6.63;6.03;;;28.30;41.80;;;;;;4949629;29;20442;-76
2023/06/11 10:21:39;;;;;;;7.50;6.07;;;28.40;40.80;;;;;;4963838;29;20706;-76
2023/06/11 10:24:05;;;;;;;6.47;5.80;;;28.40;38.90;;;;;;4966435;29;20892;-75
2023/06/11 10:26:35;;;;;;;6.40;5.80;;;28.40;38.40;;;;;;4968130;28;20424;-78
2023/06/11 10:29:02;;;;;;;6.40;5.40;;;28.40;38.00;;;;;;4955998;28;20277;-76
2023/06/11 10:31:30;;;;;;;12.47;6.17;;;28.40;37.90;;;;;;4931408;29;20425;-75
2023/06/11 10:34:03;;;;;;;6.40;5.80;;;28.30;37.70;;;;;;4950160;29;20454;-75
2023/06/11 10:36:35;;;;;;;6.30;5.70;;;28.40;37.30;;;;;;4951645;29;20436;-74
2023/06/11 10:39:21;;;;;;;6.43;5.83;;;28.50;37.50;;;;;;4966001;29;20441;-76
2023/06/11 10:41:47;;;;;;;6.50;4.90;;;28.60;36.20;;;;;;4967157;28;20845;-74
2023/06/11 10:44:14;;;;;;;14.20;6.20;;;28.60;35.70;;;;;;4968866;29;20446;-75
2023/06/11 10:46:45;;;;;;;10.63;5.70;;;28.60;35.30;;;;;;4955695;29;20249;-77
2023/06/11 10:49:15;;;;;;;6.57;5.70;;;28.50;35.60;;;;;;4939074;29;20486;-78
2023/06/11 10:51:40;;;;;;;6.80;6.03;;;28.50;36.00;;;;;;4929189;29;20411;-75
2023/06/11 10:54:07;;;;;;;6.70;6.10;;;28.60;36.00;;;;;;4935927;29;20734;-76
2023/06/11 10:56:37;;;;;;;9.27;5.47;;;28.70;36.10;;;;;;4954906;29;20200;-74
2023/06/11 10:59:09;;;;;;;8.43;5.47;;;28.80;36.10;;;;;;4956722;28;20446;-76
2023/06/11 11:01:35;;;;;;;5.60;5.20;;;28.80;36.00;;;;;;4947383;29;20496;-75
2023/06/11 11:04:01;;;;;;;7.90;5.87;;;28.90;36.30;;;;;;4945335;29;20464;-76
2023/06/11 11:06:28;;;;;;;7.20;5.60;;;28.90;36.40;;;;;;4944986;29;20425;-74
2023/06/11 11:08:55;;;;;;;6.73;6.13;;;28.90;36.50;;;;;;4945719;29;20446;-75
2023/06/11 11:11:22;;;;;;;6.50;5.90;;;28.90;36.10;;;;;;4973138;28;20471;-74
2023/06/11 11:13:48;;;;;;;6.07;5.57;;;28.90;35.90;;;;;;4983012;28;20427;-75
2023/06/11 11:16:14;;;;;;;6.07;5.57;;;28.80;35.00;;;;;;4945975;29;20810;-74
2023/06/11 11:18:40;;;;;;;6.87;6.17;;;28.80;35.40;;;;;;4958994;29;20560;-76
2023/06/11 11:21:05;;;;;;;7.50;5.77;;;28.90;35.30;;;;;;4980407;28;20420;-76
2023/06/11 11:23:32;;;;;;;7.37;6.33;;;28.90;35.40;;;;;;4961997;29;20197;-74
2023/06/11 11:25:57;;;;;;;5.90;5.30;;;28.90;35.00;;;;;;4966154;29;20189;-75
2023/06/11 11:28:23;;;;;;;6.20;5.37;;;29.00;33.70;;;;;;4950509;29;20853;-77
2023/06/11 11:30:51;;;;;;;6.17;5.63;;;29.00;34.40;;;;;;4961566;29;20259;-77
2023/06/11 11:33:17;;;;;;;6.60;5.40;;;29.00;34.40;;;;;;4949274;29;20162;-74
2023/06/11 11:35:53;;;;;;;5.93;5.43;;;29.00;34.50;;;;;;4949720;29;20794;-75
2023/06/11 11:38:20;;;;;;;6.30;5.77;;;28.90;35.20;;;;;;4965502;29;20192;-72
2023/06/11 11:40:54;;;;;;;7.70;6.40;;;29.00;35.40;;;;;;4933735;29;20433;-75
2023/06/11 11:43:19;;;;;;;7.00;5.40;;;29.10;35.50;;;;;;4966922;29;20475;-73
2023/06/11 11:45:47;;;;;;;6.10;5.50;;;29.10;35.60;;;;;;4970526;28;20506;-75
2023/06/11 11:48:14;;;;;;;6.47;5.50;;;29.10;35.60;;;;;;4968496;28;20197;-77
2023/06/11 11:50:40;;;;;;;6.17;5.57;;;29.20;35.30;;;;;;4961037;29;20449;-73
2023/06/11 11:53:12;;;;;;;6.40;5.77;;;29.10;35.00;;;;;;4946389;29;20493;-74
2023/06/11 11:55:40;;;;;;;6.63;6.03;;;29.10;35.50;;;;;;4963532;28;20680;-73
2023/06/11 11:58:11;;;;;;;6.63;6.03;;;29.20;35.10;;;;;;4968181;28;20435;-74
2023/06/11 12:00:46;;;;;;;7.27;6.57;;;29.20;34.70;;;;;;4985137;28;20439;-74
2023/06/11 12:03:12;;;;;;;6.60;6.00;;;29.10;35.10;;;;;;4964315;28;20422;-77
2023/06/11 12:05:38;;;;;;;6.10;5.60;;;29.10;35.20;;;;;;4947474;29;20445;-76
2023/06/11 12:08:05;;;;;;;6.10;4.93;;;29.20;35.20;;;;;;4932522;29;20224;-74
2023/06/11 12:10:31;;;;;;;6.13;5.63;;;29.30;35.30;;;;;;4966137;29;20448;-75
2023/06/11 12:12:59;;;;;;;6.57;5.97;;;29.40;35.40;;;;;;4966624;29;20429;-78
2023/06/11 12:15:25;;;;;;;7.10;6.40;;;29.50;34.80;;;;;;4948492;29;20248;-78
2023/06/11 12:17:51;;;;;;;6.20;5.70;;;29.50;34.80;;;;;;4950293;29;20433;-77
2023/06/11 12:20:18;;;;;;;10.57;6.47;;;29.50;35.00;;;;;;4932247;29;20218;-75
2023/06/11 12:22:43;;;;;;;9.30;6.00;;;29.50;34.60;;;;;;4937005;29;20420;-75
2023/06/11 12:25:09;;;;;;;6.43;5.90;;;29.50;34.70;;;;;;4965577;29;20491;-74
2023/06/11 12:27:36;;;;;;;9.63;5.70;;;29.60;34.80;;;;;;4947150;29;20193;-74
2023/06/11 12:30:02;;;;;;;9.30;5.27;;;29.70;34.80;;;;;;4948513;29;20212;-75
2023/06/11 12:32:31;;;;;;;7.60;5.60;;;29.90;33.70;;;;;;4944005;29;20457;-75
2023/06/11 12:34:57;;;;;;;7.60;6.90;;;29.90;33.60;;;;;;4946218;29;20490;-74
2023/06/11 12:37:24;;;;;;;7.33;5.70;;;30.00;33.80;;;;;;4949399;29;20445;-74
2023/06/11 12:39:50;;;;;;;5.30;4.80;;;30.00;33.50;;;;;;4965914;29;20197;-76
2023/06/11 12:42:20;;;;;;;7.20;5.60;;;29.90;33.60;;;;;;4960759;29;20421;-76
2023/06/11 12:44:46;;;;;;;7.17;6.47;;;29.90;33.70;;;;;;4928848;29;20414;-75
2023/06/11 12:47:13;;;;;;;6.23;5.73;;;30.00;33.40;;;;;;4931846;29;20414;-75